South Renovo, Pennsylvania
Current Conditions -  °F | °C
As of 3:35 AM on Saturday 22 Nov 2014 (Local Time) from KN38 Reporting Station
Clear Clear  
Wind Chill:   Ceiling: Unl
Heat Index: 14°   Visibility: 10mi
Dew Point:   Wind: 12mph
Humidity: 79%   Direction: 200°SSW
Pressure: 30.33"   Gusts: NA
Location:  41.3916°N, 77.7796°W
Report Text: KN38 220835Z AUTO 20010KT 10SM CLR M10/M13 A3033 RMK AO2
Loading
Personal Weather Stations






























Interactive Weather Map New forecast layout! Learn more

10-Day Weather Forecast

Advertisements
Track Severe Weather on mobile